createdAt,value
2019-01-06T00:01:57.405Z,51.44
2019-01-06T00:04:24.432Z,51.05
2019-01-06T00:06:51.559Z,50.63
2019-01-06T00:09:18.561Z,51.00
2019-01-06T00:11:45.747Z,51.56
2019-01-06T00:14:12.696Z,52.47
2019-01-06T00:16:39.625Z,53.15
2019-01-06T00:19:06.521Z,52.42
2019-01-06T00:21:35.430Z,52.36
2019-01-06T00:24:02.619Z,52.47
2019-01-06T00:26:30.549Z,52.63
2019-01-06T00:28:57.537Z,52.90
2019-01-06T00:31:24.496Z,52.83
2019-01-06T00:33:51.445Z,53.13
2019-01-06T00:36:18.566Z,52.75
2019-01-06T00:38:45.600Z,52.46
2019-01-06T00:41:12.530Z,52.15
2019-01-06T00:43:39.464Z,52.14
2019-01-06T00:46:06.434Z,51.58
2019-01-06T00:48:33.638Z,51.81
2019-01-06T00:51:00.525Z,51.25
2019-01-06T00:53:27.778Z,51.42
2019-01-06T00:55:54.997Z,50.78
2019-01-06T00:58:21.978Z,50.87
2019-01-06T01:00:48.951Z,51.45
2019-01-06T01:03:15.889Z,50.91
2019-01-06T01:05:43.016Z,50.88
2019-01-06T01:08:09.913Z,51.00
2019-01-06T01:10:36.893Z,51.21
2019-01-06T01:13:04.134Z,51.06
2019-01-06T01:15:31.265Z,51.07
2019-01-06T01:17:58.179Z,50.68
2019-01-06T01:20:25.122Z,50.71
2019-01-06T01:22:52.005Z,50.54
2019-01-06T01:25:19.181Z,50.73
2019-01-06T01:27:46.434Z,51.51
2019-01-06T01:30:13.769Z,51.10
2019-01-06T01:32:40.650Z,50.75
2019-01-06T01:35:07.894Z,50.32
2019-01-06T01:37:35.359Z,50.50
2019-01-06T01:40:02.316Z,50.26
2019-01-06T01:42:29.269Z,50.42
2019-01-06T01:44:56.214Z,50.61
2019-01-06T01:47:23.192Z,50.43
2019-01-06T01:49:50.172Z,50.13
2019-01-06T01:52:17.158Z,50.49
2019-01-06T01:54:44.098Z,50.44
2019-01-06T01:57:11.234Z,48.79
2019-01-06T01:59:38.109Z,48.19
2019-01-06T02:02:05.269Z,47.90
2019-01-06T02:04:32.153Z,48.50
2019-01-06T02:06:59.292Z,47.63
2019-01-06T02:09:26.168Z,46.76
2019-01-06T02:11:53.119Z,45.11
2019-01-06T02:14:20.340Z,45.42
2019-01-06T02:16:47.338Z,45.95
2019-01-06T02:19:14.567Z,45.35
2019-01-06T02:21:41.514Z,45.39
2019-01-06T02:24:08.381Z,44.76
2019-01-06T02:26:35.355Z,45.50
2019-01-06T02:29:02.297Z,45.88
2019-01-06T02:31:29.237Z,45.00
2019-01-06T02:33:56.370Z,45.67
2019-01-06T02:36:23.265Z,45.74
2019-01-06T02:38:50.486Z,45.44
2019-01-06T02:41:17.375Z,45.66
2019-01-06T02:43:44.613Z,45.83
2019-01-06T02:46:11.591Z,45.25
2019-01-06T02:48:38.794Z,45.49
2019-01-06T02:51:05.689Z,45.42
2019-01-06T02:53:32.645Z,45.54
2019-01-06T02:55:59.839Z,45.69
2019-01-06T02:58:26.795Z,46.15
2019-01-06T03:00:53.944Z,46.12
2019-01-06T03:03:20.817Z,45.55
2019-01-06T03:05:48.156Z,45.47
2019-01-06T03:08:15.402Z,45.27
2019-01-06T03:10:42.592Z,45.98
2019-01-06T03:13:09.569Z,45.12
2019-01-06T03:15:36.438Z,45.70
2019-01-06T03:18:03.430Z,45.17
2019-01-06T03:20:30.313Z,45.12
2019-01-06T03:22:57.278Z,45.08
2019-01-06T03:25:24.546Z,44.93
2019-01-06T03:27:51.529Z,44.89
2019-01-06T03:30:19.387Z,45.47
2019-01-06T03:32:46.343Z,45.31
2019-01-06T03:35:13.303Z,45.57
2019-01-06T03:37:40.297Z,45.89
2019-01-06T03:40:07.221Z,45.62
2019-01-06T03:42:34.093Z,45.84
2019-01-06T03:45:01.328Z,46.19
2019-01-06T03:47:28.621Z,46.01
2019-01-06T03:49:55.585Z,45.36
2019-01-06T03:52:22.531Z,45.87
2019-01-06T03:54:49.682Z,45.71
2019-01-06T03:57:16.806Z,46.11
2019-01-06T03:59:43.724Z,46.17
2019-01-06T04:02:10.706Z,46.10
2019-01-06T04:04:37.595Z,45.83
2019-01-06T04:07:04.721Z,46.04
2019-01-06T04:09:31.617Z,46.22
2019-01-06T04:11:58.837Z,46.03
2019-01-06T04:14:25.831Z,45.84
2019-01-06T04:16:52.773Z,46.03
2019-01-06T04:19:19.701Z,46.56
2019-01-06T04:21:46.619Z,46.26
2019-01-06T04:24:13.808Z,46.62
2019-01-06T04:26:40.784Z,46.78
2019-01-06T04:29:07.726Z,47.12
2019-01-06T04:31:34.661Z,47.58
2019-01-06T04:34:01.586Z,47.14
2019-01-06T04:36:28.745Z,47.05
2019-01-06T04:38:55.632Z,47.65
2019-01-06T04:41:22.601Z,47.48
2019-01-06T04:43:49.577Z,47.92
2019-01-06T04:46:16.802Z,48.16
2019-01-06T04:48:43.686Z,48.48
2019-01-06T04:51:11.823Z,48.51
2019-01-06T04:53:38.982Z,48.77
2019-01-06T04:56:05.866Z,49.01
2019-01-06T04:58:32.807Z,49.59
2019-01-06T05:04:01.473Z,48.90
2019-01-06T05:06:28.466Z,48.90
2019-01-06T05:08:55.398Z,48.50
2019-01-06T05:11:24.930Z,48.12
2019-01-06T05:13:51.813Z,47.46
2019-01-06T05:16:18.955Z,47.94
2019-01-06T05:18:45.862Z,48.33
2019-01-06T05:21:14.087Z,48.87
2019-01-06T05:23:41.324Z,48.78
2019-01-06T05:26:08.191Z,48.71
2019-01-06T05:28:35.561Z,48.56
2019-01-06T05:31:02.442Z,49.57
2019-01-06T05:33:29.453Z,49.48
2019-01-06T05:35:56.370Z,49.29
2019-01-06T05:38:23.329Z,49.83
2019-01-06T05:40:50.189Z,50.67
2019-01-06T05:43:17.107Z,49.63
2019-01-06T05:45:44.098Z,49.69
2019-01-06T05:48:11.002Z,49.66
2019-01-06T05:50:37.960Z,50.33
2019-01-06T05:53:04.909Z,50.86
2019-01-06T05:55:32.037Z,51.06
2019-01-06T05:57:59.221Z,50.35
2019-01-06T06:00:26.173Z,50.36
2019-01-06T06:02:53.290Z,50.56
2019-01-06T06:05:20.173Z,50.67
2019-01-06T06:07:47.342Z,50.65
2019-01-06T06:10:14.581Z,50.21
2019-01-06T06:12:41.535Z,50.04
2019-01-06T06:15:08.775Z,50.36
2019-01-06T06:17:35.970Z,50.63
2019-01-06T06:20:03.124Z,50.88
2019-01-06T06:22:30.317Z,50.94
2019-01-06T06:24:57.277Z,51.43
2019-01-06T06:27:24.213Z,51.62
2019-01-06T06:29:51.087Z,51.48
2019-01-06T06:32:17.955Z,51.65
2019-01-06T06:34:44.823Z,51.23
2019-01-06T06:37:11.709Z,51.25
2019-01-06T06:39:39.049Z,51.35
2019-01-06T06:42:06.010Z,51.45
2019-01-06T06:44:32.874Z,51.75
2019-01-06T06:46:59.768Z,51.90
2019-01-06T06:49:26.999Z,51.62
2019-01-06T06:51:53.965Z,51.34
2019-01-06T06:54:21.218Z,51.35
2019-01-06T06:56:48.171Z,51.10
2019-01-06T06:59:15.393Z,51.54
2019-01-06T07:01:42.281Z,51.29
2019-01-06T07:04:09.233Z,51.50
2019-01-06T07:06:36.169Z,51.61
2019-01-06T07:09:03.372Z,51.09
2019-01-06T07:11:30.430Z,51.38
2019-01-06T07:13:57.324Z,51.50
2019-01-06T07:16:24.504Z,51.46
2019-01-06T07:18:51.445Z,51.35
2019-01-06T07:21:18.591Z,51.62
2019-01-06T07:23:45.541Z,51.81
2019-01-06T07:26:12.787Z,51.85
2019-01-06T07:28:40.010Z,51.83
2019-01-06T07:31:07.222Z,51.80
2019-01-06T07:33:34.472Z,51.67
2019-01-06T07:36:01.605Z,51.58
2019-01-06T07:38:28.501Z,51.65
2019-01-06T07:40:55.525Z,51.73
2019-01-06T07:43:22.481Z,51.49
2019-01-06T07:45:49.755Z,51.64
2019-01-06T07:48:16.902Z,51.64
2019-01-06T07:50:44.034Z,51.31
2019-01-06T07:53:11.921Z,50.95
2019-01-06T07:55:39.265Z,51.20
2019-01-06T07:58:06.601Z,51.38
2019-01-06T08:00:33.467Z,51.19
2019-01-06T08:03:00.434Z,51.34
2019-01-06T08:05:27.317Z,51.02
2019-01-06T08:07:55.752Z,51.20
2019-01-06T08:10:26.457Z,51.05
2019-01-06T08:12:53.550Z,50.84
2019-01-06T08:15:20.678Z,50.82
2019-01-06T08:17:47.809Z,50.84
2019-01-06T08:20:15.746Z,50.96
2019-01-06T08:22:42.680Z,50.53
2019-01-06T08:25:09.638Z,50.29
2019-01-06T08:27:36.593Z,50.61
2019-01-06T08:30:03.467Z,49.98
2019-01-06T08:32:30.416Z,49.99
2019-01-06T08:35:02.793Z,50.18
2019-01-06T08:37:30.330Z,50.38
2019-01-06T08:39:57.439Z,50.46
2019-01-06T08:42:24.605Z,50.35
2019-01-06T08:44:51.528Z,50.18
2019-01-06T08:47:19.000Z,50.56
2019-01-06T08:49:45.884Z,50.83
2019-01-06T08:52:14.237Z,50.51
2019-01-06T08:54:41.382Z,50.33
2019-01-06T08:57:08.253Z,50.43
2019-01-06T08:59:36.285Z,49.85
2019-01-06T09:02:03.585Z,50.18
2019-01-06T09:04:30.545Z,50.10
2019-01-06T09:06:57.749Z,49.71
2019-01-06T09:09:24.642Z,50.32
2019-01-06T09:11:51.853Z,49.84
2019-01-06T09:14:18.755Z,49.15
2019-01-06T09:16:45.725Z,49.23
2019-01-06T09:19:12.617Z,48.68
2019-01-06T09:21:39.487Z,48.63
2019-01-06T09:24:06.694Z,48.89
2019-01-06T09:26:34.092Z,49.12
2019-01-06T09:29:01.931Z,48.75
2019-01-06T09:31:29.130Z,49.35
2019-01-06T09:33:56.587Z,50.14
2019-01-06T09:36:23.603Z,49.96
2019-01-06T09:38:50.555Z,50.18
2019-01-06T09:41:17.785Z,50.27
2019-01-06T09:43:44.839Z,49.91
2019-01-06T09:46:11.741Z,49.95
2019-01-06T09:48:38.934Z,49.82
2019-01-06T09:51:05.865Z,49.58
2019-01-06T09:53:32.830Z,49.54
2019-01-06T09:55:59.850Z,49.46
2019-01-06T09:58:27.962Z,49.01
2019-01-06T10:00:55.222Z,48.89
2019-01-06T10:03:22.190Z,48.60
2019-01-06T10:05:49.454Z,48.42
2019-01-06T10:08:16.739Z,47.80
2019-01-06T10:10:43.980Z,47.08
2019-01-06T10:13:11.240Z,46.02
2019-01-06T10:15:38.178Z,44.17
2019-01-06T10:18:05.130Z,44.12
2019-01-06T10:20:32.392Z,44.19
2019-01-06T10:22:59.658Z,43.95
2019-01-06T10:25:26.608Z,44.02
2019-01-06T10:27:53.781Z,44.54
2019-01-06T10:30:20.830Z,44.39
2019-01-06T10:32:47.722Z,43.99
2019-01-06T10:35:15.079Z,44.26
2019-01-06T10:37:42.043Z,44.87
2019-01-06T10:40:09.127Z,44.45
2019-01-06T10:42:36.133Z,43.92
2019-01-06T10:45:03.390Z,44.12
2019-01-06T10:47:33.921Z,43.93
2019-01-06T10:50:01.003Z,44.02
2019-01-06T10:52:29.646Z,44.33
2019-01-06T10:54:56.603Z,44.01
2019-01-06T10:57:23.551Z,44.17
2019-01-06T10:59:50.490Z,43.79
2019-01-06T11:02:17.794Z,43.76
2019-01-06T11:04:44.749Z,43.41
2019-01-06T11:07:12.054Z,42.83
2019-01-06T11:09:39.281Z,43.15
2019-01-06T11:12:06.276Z,43.26
2019-01-06T11:14:33.139Z,43.66
2019-01-06T11:17:00.299Z,43.59
2019-01-06T11:19:27.263Z,44.47
2019-01-06T11:21:55.592Z,45.18
2019-01-06T11:24:22.517Z,46.49
2019-01-06T11:26:49.454Z,46.99
2019-01-06T11:29:16.638Z,44.73
2019-01-06T11:31:43.599Z,44.93
2019-01-06T11:34:10.902Z,44.15
2019-01-06T11:36:45.535Z,44.01
2019-01-06T11:39:12.812Z,44.19
2019-01-06T11:41:39.806Z,43.09
2019-01-06T11:44:06.806Z,41.98
2019-01-06T11:46:33.785Z,41.17
2019-01-06T11:49:00.782Z,41.06
2019-01-06T11:51:27.775Z,41.23
2019-01-06T11:53:54.869Z,40.98
2019-01-06T11:56:22.328Z,41.17
2019-01-06T11:58:49.388Z,41.40
2019-01-06T12:01:16.302Z,41.61
2019-01-06T12:03:43.298Z,42.77
2019-01-06T12:06:12.944Z,42.37
2019-01-06T12:08:41.197Z,41.80
2019-01-06T12:11:08.620Z,41.55
2019-01-06T12:13:35.587Z,42.39
2019-01-06T12:16:04.439Z,42.65
2019-01-06T12:18:33.621Z,42.14
2019-01-06T12:21:01.571Z,42.78
2019-01-06T12:23:34.423Z,43.01
2019-01-06T12:26:01.965Z,42.39
2019-01-06T12:28:33.682Z,42.34
2019-01-06T12:33:40.032Z,42.67
2019-01-06T12:36:22.622Z,43.15
2019-01-06T12:38:53.086Z,43.20
2019-01-06T12:41:20.747Z,43.18
2019-01-06T12:43:51.294Z,43.36
2019-01-06T12:46:23.296Z,43.31
2019-01-06T12:48:53.253Z,43.47
2019-01-06T12:51:20.273Z,43.44
2019-01-06T12:53:49.651Z,43.08
2019-01-06T12:56:17.140Z,42.73
2019-01-06T12:58:44.432Z,42.80
2019-01-06T13:01:19.842Z,43.32
2019-01-06T13:03:58.162Z,43.36
2019-01-06T13:06:45.890Z,43.32
2019-01-06T13:09:11.027Z,43.60
2019-01-06T13:11:40.083Z,43.54
2019-01-06T13:14:08.823Z,43.66
2019-01-06T13:16:39.966Z,43.89
2019-01-06T13:19:07.064Z,43.24
2019-01-06T13:21:34.281Z,43.89
2019-01-06T13:24:01.194Z,43.65
2019-01-06T13:26:34.474Z,44.03
2019-01-06T13:29:04.325Z,44.27
2019-01-06T13:34:41.625Z,45.76
2019-01-06T13:39:55.432Z,46.34
2019-01-06T13:45:12.700Z,47.90
2019-01-06T13:47:39.900Z,52.19
2019-01-06T13:50:13.169Z,51.19
2019-01-06T13:52:40.365Z,49.88
2019-01-06T13:55:10.136Z,49.33
2019-01-06T13:57:43.486Z,49.30
2019-01-06T14:00:20.931Z,49.79
2019-01-06T14:03:00.043Z,50.22
2019-01-06T14:05:28.396Z,50.22
2019-01-06T14:07:57.214Z,49.96
2019-01-06T14:10:26.494Z,49.98
2019-01-06T14:13:00.479Z,50.80
2019-01-06T14:15:27.725Z,50.61
2019-01-06T14:17:56.798Z,50.92
2019-01-06T14:20:26.179Z,50.28
2019-01-06T14:22:59.062Z,50.13
2019-01-06T14:25:25.046Z,49.64
2019-01-06T14:27:52.147Z,50.54
2019-01-06T14:30:20.936Z,50.46
2019-01-06T14:32:49.478Z,50.03
2019-01-06T14:38:02.111Z,51.04
2019-01-06T14:40:29.060Z,50.87
2019-01-06T14:42:56.155Z,50.96
2019-01-06T14:45:23.209Z,50.91
2019-01-06T14:47:56.434Z,51.37
2019-01-06T14:50:25.632Z,50.67
2019-01-06T14:53:09.152Z,51.09
2019-01-06T14:55:38.874Z,50.93
2019-01-06T14:58:08.983Z,51.56
2019-01-06T15:00:40.705Z,51.67
2019-01-06T15:03:06.377Z,51.46
2019-01-06T15:05:33.493Z,51.58
2019-01-06T15:08:01.948Z,51.65
2019-01-06T15:10:29.211Z,51.61
2019-01-06T15:12:56.812Z,51.80
2019-01-06T15:17:59.414Z,51.66
2019-01-06T15:20:26.915Z,51.99
2019-01-06T15:22:55.902Z,51.79
2019-01-06T15:25:24.148Z,51.26
2019-01-06T15:27:51.081Z,51.18
2019-01-06T15:30:18.059Z,51.62
2019-01-06T15:32:48.894Z,51.68
2019-01-06T15:35:16.086Z,51.24
2019-01-06T15:37:47.828Z,51.38
2019-01-06T15:40:12.311Z,51.63
2019-01-06T15:42:51.956Z,51.37
2019-01-06T15:45:15.309Z,51.65
2019-01-06T15:47:42.384Z,51.71
2019-01-06T15:50:14.925Z,51.49
2019-01-06T15:52:42.447Z,51.75
2019-01-06T15:55:09.682Z,51.74
2019-01-06T15:57:36.712Z,51.82
2019-01-06T16:00:03.703Z,52.19
2019-01-06T16:05:08.218Z,52.77
2019-01-06T16:07:35.319Z,52.61
2019-01-06T16:10:09.038Z,52.79
2019-01-06T16:12:36.179Z,51.92
2019-01-06T16:15:03.310Z,51.09
2019-01-06T16:17:30.437Z,51.33
2019-01-06T16:23:20.633Z,50.76
2019-01-06T16:25:56.671Z,50.42
2019-01-06T16:31:18.217Z,49.47
2019-01-06T16:33:46.543Z,49.40
2019-01-06T16:36:14.063Z,48.52
2019-01-06T16:38:44.035Z,48.66
2019-01-06T16:41:11.072Z,48.76
2019-01-06T16:43:38.292Z,48.13
2019-01-06T16:46:08.000Z,47.88
2019-01-06T16:48:41.012Z,48.01
2019-01-06T16:51:10.011Z,47.43
2019-01-06T16:53:42.917Z,47.39
2019-01-06T16:59:01.578Z,47.54
2019-01-06T17:01:29.275Z,47.67
2019-01-06T17:04:20.701Z,47.49
2019-01-06T17:06:48.802Z,46.96
2019-01-06T17:09:15.940Z,46.69
2019-01-06T17:11:43.088Z,46.81
2019-01-06T17:14:10.326Z,47.11
2019-01-06T17:16:37.606Z,47.62
2019-01-06T17:19:04.606Z,47.49
2019-01-06T17:21:31.915Z,47.26
2019-01-06T17:24:03.955Z,47.58
2019-01-06T17:26:27.912Z,47.21
2019-01-06T17:28:55.235Z,47.76
2019-01-06T17:32:12.067Z,47.97
2019-01-06T17:33:55.268Z,48.00
2019-01-06T17:41:46.959Z,48.44
2019-01-06T17:44:17.215Z,48.91
2019-01-06T17:46:46.975Z,48.65
2019-01-06T17:49:14.737Z,49.08
2019-01-06T17:51:43.887Z,49.07
2019-01-06T17:54:16.957Z,48.71
2019-01-06T17:56:44.422Z,48.80
2019-01-06T17:59:11.756Z,49.07
2019-01-06T18:01:38.888Z,49.55
2019-01-06T18:04:12.309Z,49.47
2019-01-06T18:06:47.140Z,49.48
2019-01-06T18:09:23.154Z,49.85
2019-01-06T18:11:45.675Z,50.21
2019-01-06T18:14:18.973Z,50.21
2019-01-06T18:16:56.565Z,50.47
2019-01-06T18:19:31.653Z,50.42
2019-01-06T18:21:59.193Z,50.89
2019-01-06T18:24:26.337Z,50.44
2019-01-06T18:27:12.047Z,50.61
2019-01-06T18:40:54.508Z,52.21
2019-01-06T18:43:36.879Z,52.46
2019-01-06T18:46:06.259Z,52.02
2019-01-06T18:54:19.729Z,52.24
2019-01-06T18:56:38.558Z,52.00
2019-01-06T18:59:08.169Z,52.03
2019-01-06T19:01:39.509Z,55.07
2019-01-06T19:04:09.046Z,53.65
2019-01-06T19:06:36.281Z,51.70
2019-01-06T19:09:03.365Z,52.57
2019-01-06T19:11:31.389Z,53.59
2019-01-06T19:14:00.472Z,52.57
2019-01-06T19:39:38.800Z,52.35
2019-01-06T19:45:05.476Z,53.27
2019-01-06T19:50:25.304Z,52.86
2019-01-06T19:56:19.137Z,53.13
2019-01-06T19:58:47.652Z,53.36
2019-01-06T20:01:48.644Z,53.43
2019-01-06T20:04:09.678Z,52.94
2019-01-06T20:37:40.923Z,52.70
2019-01-06T20:40:21.209Z,52.71
2019-01-06T20:42:57.543Z,52.68
2019-01-06T20:45:36.571Z,52.79
2019-01-06T20:48:10.359Z,52.46
2019-01-06T20:50:53.135Z,52.59
2019-01-06T20:53:21.984Z,52.76
2019-01-06T20:56:01.445Z,52.83
2019-01-06T20:58:32.129Z,53.37
2019-01-06T21:00:59.174Z,53.20
